sensor_id;sensor_type;location;lat;lon;timestamp;temperature;humidity
67893;DHT22;54688;52.376;16.744;2022-11-15T00:00:53;3.5;87.3
67893;DHT22;54688;52.376;16.744;2022-11-15T00:06:55;3.5;87.1
67893;DHT22;54688;52.376;16.744;2022-11-15T00:09:56;3.5;87
67893;DHT22;54688;52.376;16.744;2022-11-15T00:12:58;3.5;87.1
67893;DHT22;54688;52.376;16.744;2022-11-15T00:16:00;3.5;87
67893;DHT22;54688;52.376;16.744;2022-11-15T00:19:02;3.5;87
67893;DHT22;54688;52.376;16.744;2022-11-15T00:22:05;3.5;87.1
67893;DHT22;54688;52.376;16.744;2022-11-15T00:25:06;3.5;87.1
67893;DHT22;54688;52.376;16.744;2022-11-15T00:28:09;3.6;87.2
67893;DHT22;54688;52.376;16.744;2022-11-15T00:31:12;3.6;87.2
67893;DHT22;54688;52.376;16.744;2022-11-15T00:34:14;3.6;87.2
67893;DHT22;54688;52.376;16.744;2022-11-15T00:37:16;3.6;86.6
67893;DHT22;54688;52.376;16.744;2022-11-15T00:40:18;3.6;87.2
67893;DHT22;54688;52.376;16.744;2022-11-15T00:43:20;3.6;87.6
67893;DHT22;54688;52.376;16.744;2022-11-15T00:46:22;3.5;87.1
67893;DHT22;54688;52.376;16.744;2022-11-15T00:49:23;3.6;87.1
67893;DHT22;54688;52.376;16.744;2022-11-15T00:52:25;3.6;87
67893;DHT22;54688;52.376;16.744;2022-11-15T00:55:28;3.6;87.1
67893;DHT22;54688;52.376;16.744;2022-11-15T00:58:29;3.6;87
67893;DHT22;54688;52.376;16.744;2022-11-15T01:01:31;3.6;86.9
67893;DHT22;54688;52.376;16.744;2022-11-15T01:04:33;3.6;86.9
67893;DHT22;54688;52.376;16.744;2022-11-15T01:07:35;3.6;86.9
67893;DHT22;54688;52.376;16.744;2022-11-15T01:10:37;3.5;86.8
67893;DHT22;54688;52.376;16.744;2022-11-15T01:13:39;3.5;86.8
67893;DHT22;54688;52.376;16.744;2022-11-15T01:16:41;3.5;86.7
67893;DHT22;54688;52.376;16.744;2022-11-15T01:19:43;3.5;86.7
67893;DHT22;54688;52.376;16.744;2022-11-15T01:22:45;3.5;86.7
67893;DHT22;54688;52.376;16.744;2022-11-15T01:25:47;3.5;86.7
67893;DHT22;54688;52.376;16.744;2022-11-15T01:28:48;3.5;86.8
67893;DHT22;54688;52.376;16.744;2022-11-15T01:31:52;3.5;86.7
67893;DHT22;54688;52.376;16.744;2022-11-15T01:34:54;3.5;86.7
67893;DHT22;54688;52.376;16.744;2022-11-15T01:37:56;3.5;86.7
67893;DHT22;54688;52.376;16.744;2022-11-15T01:40:59;3.5;86.7
67893;DHT22;54688;52.376;16.744;2022-11-15T01:45:05;3.5;86.7
67893;DHT22;54688;52.376;16.744;2022-11-15T01:48:14;3.5;86.7
67893;DHT22;54688;52.376;16.744;2022-11-15T01:54:16;3.4;86.6
67893;DHT22;54688;52.376;16.744;2022-11-15T01:57:22;3.4;86.6
67893;DHT22;54688;52.376;16.744;2022-11-15T02:00:24;3.4;86.7
67893;DHT22;54688;52.376;16.744;2022-11-15T02:06:26;3.4;86.7
67893;DHT22;54688;52.376;16.744;2022-11-15T02:09:28;3.4;86.7
67893;DHT22;54688;52.376;16.744;2022-11-15T02:12:31;3.4;86.8
67893;DHT22;54688;52.376;16.744;2022-11-15T02:15:34;3.4;86.7
67893;DHT22;54688;52.376;16.744;2022-11-15T02:18:41;3.4;86.6
67893;DHT22;54688;52.376;16.744;2022-11-15T02:21:49;3.3;86.6
67893;DHT22;54688;52.376;16.744;2022-11-15T02:25:05;3.3;86.7
67893;DHT22;54688;52.376;16.744;2022-11-15T02:28:23;3.3;86.6
67893;DHT22;54688;52.376;16.744;2022-11-15T02:31:34;3.3;86.5
67893;DHT22;54688;52.376;16.744;2022-11-15T02:34:43;3.3;86.5
67893;DHT22;54688;52.376;16.744;2022-11-15T02:37:53;3.3;86.5
67893;DHT22;54688;52.376;16.744;2022-11-15T02:40:59;3.3;86.5
67893;DHT22;54688;52.376;16.744;2022-11-15T02:44:04;3.3;86.4
67893;DHT22;54688;52.376;16.744;2022-11-15T02:47:13;3.3;86.4
67893;DHT22;54688;52.376;16.744;2022-11-15T02:50:20;3.3;86.4
67893;DHT22;54688;52.376;16.744;2022-11-15T02:53:23;3.3;86.3
67893;DHT22;54688;52.376;16.744;2022-11-15T02:56:26;3.3;86.4
67893;DHT22;54688;52.376;16.744;2022-11-15T02:59:33;3.3;86.3
67893;DHT22;54688;52.376;16.744;2022-11-15T03:03:55;3.3;85.3
67893;DHT22;54688;52.376;16.744;2022-11-15T03:07:05;3.2;86.2
67893;DHT22;54688;52.376;16.744;2022-11-15T03:10:14;3.2;86.2
67893;DHT22;54688;52.376;16.744;2022-11-15T03:13:24;3.2;86.1
67893;DHT22;54688;52.376;16.744;2022-11-15T03:16:29;3.2;86.2
67893;DHT22;54688;52.376;16.744;2022-11-15T03:19:35;3.1;86.2
67893;DHT22;54688;52.376;16.744;2022-11-15T03:22:44;3.1;86.2
67893;DHT22;54688;52.376;16.744;2022-11-15T03:25:49;3.1;86.2
67893;DHT22;54688;52.376;16.744;2022-11-15T03:28:54;3.1;86.2
67893;DHT22;54688;52.376;16.744;2022-11-15T03:32:00;3.1;86.3
67893;DHT22;54688;52.376;16.744;2022-11-15T03:35:08;3.1;86.3
67893;DHT22;54688;52.376;16.744;2022-11-15T03:38:14;3.1;86.3
67893;DHT22;54688;52.376;16.744;2022-11-15T03:41:22;3.1;86.3
67893;DHT22;54688;52.376;16.744;2022-11-15T03:50:27;3.1;86.4
67893;DHT22;54688;52.376;16.744;2022-11-15T03:53:30;3.2;87
67893;DHT22;54688;52.376;16.744;2022-11-15T03:56:33;3.2;86.5
67893;DHT22;54688;52.376;16.744;2022-11-15T03:59:35;3.1;86.5
67893;DHT22;54688;52.376;16.744;2022-11-15T04:02:37;3.2;86.6
67893;DHT22;54688;52.376;16.744;2022-11-15T04:05:39;3.2;86.5
67893;DHT22;54688;52.376;16.744;2022-11-15T04:08:41;3.2;86.5
67893;DHT22;54688;52.376;16.744;2022-11-15T04:11:43;3.2;86.6
67893;DHT22;54688;52.376;16.744;2022-11-15T04:14:45;3.2;86.6
67893;DHT22;54688;52.376;16.744;2022-11-15T04:17:47;3.3;86.5
67893;DHT22;54688;52.376;16.744;2022-11-15T04:20:50;3.2;86.5
67893;DHT22;54688;52.376;16.744;2022-11-15T04:23:52;3.3;86.5
67893;DHT22;54688;52.376;16.744;2022-11-15T04:26:54;3.2;86.4
67893;DHT22;54688;52.376;16.744;2022-11-15T04:29:56;3.2;86.4
67893;DHT22;54688;52.376;16.744;2022-11-15T04:32:58;3.3;86.5
67893;DHT22;54688;52.376;16.744;2022-11-15T04:36:00;3.3;86.5
67893;DHT22;54688;52.376;16.744;2022-11-15T04:39:02;3.3;86.1
67893;DHT22;54688;52.376;16.744;2022-11-15T04:42:04;3.3;86.4
67893;DHT22;54688;52.376;16.744;2022-11-15T04:45:06;3.3;86.3
67893;DHT22;54688;52.376;16.744;2022-11-15T04:48:08;3.3;86.4
67893;DHT22;54688;52.376;16.744;2022-11-15T04:51:10;3.3;86.4
67893;DHT22;54688;52.376;16.744;2022-11-15T04:54:12;3.3;86.4
67893;DHT22;54688;52.376;16.744;2022-11-15T04:57:14;3.4;86.6
67893;DHT22;54688;52.376;16.744;2022-11-15T05:00:16;3.3;86.4
67893;DHT22;54688;52.376;16.744;2022-11-15T05:03:19;3.3;86.3
67893;DHT22;54688;52.376;16.744;2022-11-15T05:06:21;3.3;86.4
67893;DHT22;54688;52.376;16.744;2022-11-15T05:09:22;3.3;86.3
67893;DHT22;54688;52.376;16.744;2022-11-15T05:12:24;3.3;86.4
67893;DHT22;54688;52.376;16.744;2022-11-15T05:15:26;3.2;86.3
67893;DHT22;54688;52.376;16.744;2022-11-15T05:18:28;3.3;86.3
67893;DHT22;54688;52.376;16.744;2022-11-15T05:21:30;3.3;86.2
67893;DHT22;54688;52.376;16.744;2022-11-15T05:24:32;3.3;86.2
67893;DHT22;54688;52.376;16.744;2022-11-15T05:27:34;3.2;86.2
67893;DHT22;54688;52.376;16.744;2022-11-15T05:30:36;3.3;86.2
67893;DHT22;54688;52.376;16.744;2022-11-15T05:33:38;3.3;86.2
67893;DHT22;54688;52.376;16.744;2022-11-15T05:36:41;3.3;86.2
67893;DHT22;54688;52.376;16.744;2022-11-15T05:39:44;3.2;86
67893;DHT22;54688;52.376;16.744;2022-11-15T05:42:47;3.2;86.1
67893;DHT22;54688;52.376;16.744;2022-11-15T05:45:49;3.2;86.2
67893;DHT22;54688;52.376;16.744;2022-11-15T05:48:51;3.2;86.7
67893;DHT22;54688;52.376;16.744;2022-11-15T05:51:55;3.2;86.2
67893;DHT22;54688;52.376;16.744;2022-11-15T05:54:59;3.2;86.1
67893;DHT22;54688;52.376;16.744;2022-11-15T05:58:00;3.2;86
67893;DHT22;54688;52.376;16.744;2022-11-15T06:01:02;3.2;86
67893;DHT22;54688;52.376;16.744;2022-11-15T06:04:05;3.2;85.9
67893;DHT22;54688;52.376;16.744;2022-11-15T06:07:07;3.2;85.9
67893;DHT22;54688;52.376;16.744;2022-11-15T06:10:09;3.1;86
67893;DHT22;54688;52.376;16.744;2022-11-15T06:13:11;3.2;86
67893;DHT22;54688;52.376;16.744;2022-11-15T06:16:13;3.2;86.7
67893;DHT22;54688;52.376;16.744;2022-11-15T06:19:16;3.1;85.9
67893;DHT22;54688;52.376;16.744;2022-11-15T06:22:17;3.1;86
67893;DHT22;54688;52.376;16.744;2022-11-15T06:25:19;3.1;86
67893;DHT22;54688;52.376;16.744;2022-11-15T06:28:22;3.2;86.1
67893;DHT22;54688;52.376;16.744;2022-11-15T06:31:24;3.1;86
67893;DHT22;54688;52.376;16.744;2022-11-15T06:34:25;3.1;86.1
67893;DHT22;54688;52.376;16.744;2022-11-15T06:37:27;3.2;86.6
67893;DHT22;54688;52.376;16.744;2022-11-15T06:40:29;3.1;86.2
67893;DHT22;54688;52.376;16.744;2022-11-15T06:43:32;3.2;86.2
67893;DHT22;54688;52.376;16.744;2022-11-15T06:46:35;3.2;86.2
67893;DHT22;54688;52.376;16.744;2022-11-15T06:49:37;3.2;86.2
67893;DHT22;54688;52.376;16.744;2022-11-15T06:52:39;3.2;86.2
67893;DHT22;54688;52.376;16.744;2022-11-15T06:55:41;3.2;86.1
67893;DHT22;54688;52.376;16.744;2022-11-15T06:58:43;3.2;86.2
67893;DHT22;54688;52.376;16.744;2022-11-15T07:01:45;3.3;86.3
67893;DHT22;54688;52.376;16.744;2022-11-15T07:04:48;3.3;86.3
67893;DHT22;54688;52.376;16.744;2022-11-15T07:07:51;3.3;86.3
67893;DHT22;54688;52.376;16.744;2022-11-15T07:10:53;3.3;86.1
67893;DHT22;54688;52.376;16.744;2022-11-15T07:13:56;3.4;86.2
67893;DHT22;54688;52.376;16.744;2022-11-15T07:16:58;3.4;86.3
67893;DHT22;54688;52.376;16.744;2022-11-15T07:20:00;3.4;86.4
67893;DHT22;54688;52.376;16.744;2022-11-15T07:23:02;3.5;86.4
67893;DHT22;54688;52.376;16.744;2022-11-15T07:26:06;3.5;86.4
67893;DHT22;54688;52.376;16.744;2022-11-15T07:29:09;3.5;86.3
67893;DHT22;54688;52.376;16.744;2022-11-15T07:32:11;3.6;86.2
67893;DHT22;54688;52.376;16.744;2022-11-15T07:35:13;3.6;86.2
67893;DHT22;54688;52.376;16.744;2022-11-15T07:38:16;3.6;86
67893;DHT22;54688;52.376;16.744;2022-11-15T07:41:18;3.7;86.1
67893;DHT22;54688;52.376;16.744;2022-11-15T07:44:20;3.7;86.2
67893;DHT22;54688;52.376;16.744;2022-11-15T07:47:22;3.8;86.2
67893;DHT22;54688;52.376;16.744;2022-11-15T07:50:24;3.8;86
67893;DHT22;54688;52.376;16.744;2022-11-15T07:53:27;3.8;86.1
67893;DHT22;54688;52.376;16.744;2022-11-15T07:59:28;3.9;86.1
67893;DHT22;54688;52.376;16.744;2022-11-15T08:02:31;3.9;86
67893;DHT22;54688;52.376;16.744;2022-11-15T08:05:33;4;86.2
67893;DHT22;54688;52.376;16.744;2022-11-15T08:08:35;4;86.1
67893;DHT22;54688;52.376;16.744;2022-11-15T08:11:38;4.1;86.3
67893;DHT22;54688;52.376;16.744;2022-11-15T08:14:40;4.1;86
67893;DHT22;54688;52.376;16.744;2022-11-15T08:17:42;4.1;85.9
67893;DHT22;54688;52.376;16.744;2022-11-15T08:20:44;4.2;85.5
67893;DHT22;54688;52.376;16.744;2022-11-15T08:23:46;4.3;86.1
67893;DHT22;54688;52.376;16.744;2022-11-15T08:26:48;4.3;86.5
67893;DHT22;54688;52.376;16.744;2022-11-15T08:29:50;4.3;86
67893;DHT22;54688;52.376;16.744;2022-11-15T08:32:53;4.4;85.8
67893;DHT22;54688;52.376;16.744;2022-11-15T08:35:55;4.4;86.7
67893;DHT22;54688;52.376;16.744;2022-11-15T08:41:56;4.6;86.1
67893;DHT22;54688;52.376;16.744;2022-11-15T08:44:59;4.6;85.7
67893;DHT22;54688;52.376;16.744;2022-11-15T08:48:01;4.8;85.7
67893;DHT22;54688;52.376;16.744;2022-11-15T08:51:03;4.8;85.7
67893;DHT22;54688;52.376;16.744;2022-11-15T08:54:06;4.9;86.4
67893;DHT22;54688;52.376;16.744;2022-11-15T08:57:07;5;86
67893;DHT22;54688;52.376;16.744;2022-11-15T09:00:09;5;85.4
67893;DHT22;54688;52.376;16.744;2022-11-15T09:03:12;5.1;85.6
67893;DHT22;54688;52.376;16.744;2022-11-15T09:06:14;5.1;85.5
67893;DHT22;54688;52.376;16.744;2022-11-15T09:09:17;5.1;85.4
67893;DHT22;54688;52.376;16.744;2022-11-15T09:12:19;5.2;85.3
67893;DHT22;54688;52.376;16.744;2022-11-15T09:15:21;5.3;85.2
67893;DHT22;54688;52.376;16.744;2022-11-15T09:18:23;5.4;85.5
67893;DHT22;54688;52.376;16.744;2022-11-15T09:24:23;5.4;84.9
67893;DHT22;54688;52.376;16.744;2022-11-15T09:30:24;5.6;85.3
67893;DHT22;54688;52.376;16.744;2022-11-15T09:33:26;5.6;84.7
67893;DHT22;54688;52.376;16.744;2022-11-15T09:36:28;5.7;84.9
67893;DHT22;54688;52.376;16.744;2022-11-15T09:39:30;5.8;85.1
67893;DHT22;54688;52.376;16.744;2022-11-15T09:42:37;5.9;84.5
67893;DHT22;54688;52.376;16.744;2022-11-15T09:45:53;5.9;83.8
67893;DHT22;54688;52.376;16.744;2022-11-15T09:49:06;5.9;84.3
67893;DHT22;54688;52.376;16.744;2022-11-15T09:52:10;6;84.3
67893;DHT22;54688;52.376;16.744;2022-11-15T09:55:13;6.1;84.3
67893;DHT22;54688;52.376;16.744;2022-11-15T09:58:18;6.2;83.5
67893;DHT22;54688;52.376;16.744;2022-11-15T10:01:30;6.2;83.5
67893;DHT22;54688;52.376;16.744;2022-11-15T10:04:40;6.3;83.3
67893;DHT22;54688;52.376;16.744;2022-11-15T10:07:44;6.3;83.2
67893;DHT22;54688;52.376;16.744;2022-11-15T10:10:54;6.4;82.7
67893;DHT22;54688;52.376;16.744;2022-11-15T10:13:59;6.4;83.3
67893;DHT22;54688;52.376;16.744;2022-11-15T10:17:09;6.4;83.3
67893;DHT22;54688;52.376;16.744;2022-11-15T10:20:41;6.5;83.2
67893;DHT22;54688;52.376;16.744;2022-11-15T10:23:48;6.6;82.8
67893;DHT22;54688;52.376;16.744;2022-11-15T10:26:54;6.7;83.5
67893;DHT22;54688;52.376;16.744;2022-11-15T10:29:56;6.7;82.3
67893;DHT22;54688;52.376;16.744;2022-11-15T10:32:58;6.8;82.3
67893;DHT22;54688;52.376;16.744;2022-11-15T10:36:14;6.9;82.9
67893;DHT22;54688;52.376;16.744;2022-11-15T10:39:19;6.9;81.2
67893;DHT22;54688;52.376;16.744;2022-11-15T10:42:25;6.9;82.1
67893;DHT22;54688;52.376;16.744;2022-11-15T10:45:29;7;81.9
67893;DHT22;54688;52.376;16.744;2022-11-15T10:48:32;7;82
67893;DHT22;54688;52.376;16.744;2022-11-15T10:51:34;7.1;81.5
67893;DHT22;54688;52.376;16.744;2022-11-15T10:54:44;7.1;81.2
67893;DHT22;54688;52.376;16.744;2022-11-15T10:57:50;7.2;81.2
67893;DHT22;54688;52.376;16.744;2022-11-15T11:00:54;7.2;81.2
67893;DHT22;54688;52.376;16.744;2022-11-15T11:03:58;7.3;82.3
67893;DHT22;54688;52.376;16.744;2022-11-15T11:07:01;7.4;81.2
67893;DHT22;54688;52.376;16.744;2022-11-15T11:10:05;7.4;80.4
67893;DHT22;54688;52.376;16.744;2022-11-15T11:13:21;7.4;80.7
67893;DHT22;54688;52.376;16.744;2022-11-15T11:16:33;7.4;80.4
67893;DHT22;54688;52.376;16.744;2022-11-15T11:19:46;7.5;80.4
67893;DHT22;54688;52.376;16.744;2022-11-15T11:22:58;7.5;80.4
67893;DHT22;54688;52.376;16.744;2022-11-15T11:26:10;7.6;80
67893;DHT22;54688;52.376;16.744;2022-11-15T11:29:24;7.7;80.4
67893;DHT22;54688;52.376;16.744;2022-11-15T11:32:42;7.7;80.3
67893;DHT22;54688;52.376;16.744;2022-11-15T11:35:55;7.8;79.8
67893;DHT22;54688;52.376;16.744;2022-11-15T11:39:13;7.8;79.4
67893;DHT22;54688;52.376;16.744;2022-11-15T11:42:25;7.8;79.9
67893;DHT22;54688;52.376;16.744;2022-11-15T11:45:44;7.8;79.5
67893;DHT22;54688;52.376;16.744;2022-11-15T11:49:01;7.8;79.3
67893;DHT22;54688;52.376;16.744;2022-11-15T11:52:08;7.8;79.3
67893;DHT22;54688;52.376;16.744;2022-11-15T11:55:15;7.9;79.6
67893;DHT22;54688;52.376;16.744;2022-11-15T11:58:22;7.9;79.5
67893;DHT22;54688;52.376;16.744;2022-11-15T12:01:31;7.9;79.8
67893;DHT22;54688;52.376;16.744;2022-11-15T12:04:37;7.9;79.1
67893;DHT22;54688;52.376;16.744;2022-11-15T12:07:42;7.9;79.1
67893;DHT22;54688;52.376;16.744;2022-11-15T12:10:47;8;78.3
67893;DHT22;54688;52.376;16.744;2022-11-15T12:13:56;8;78.7
67893;DHT22;54688;52.376;16.744;2022-11-15T12:17:01;8;78.7
67893;DHT22;54688;52.376;16.744;2022-11-15T12:20:05;8;78.8
67893;DHT22;54688;52.376;16.744;2022-11-15T12:23:17;8;78.7
67893;DHT22;54688;52.376;16.744;2022-11-15T12:26:25;8;78.5
67893;DHT22;54688;52.376;16.744;2022-11-15T12:29:31;7.9;78.6
67893;DHT22;54688;52.376;16.744;2022-11-15T12:35:37;8;78
67893;DHT22;54688;52.376;16.744;2022-11-15T12:38:57;8;78.7
67893;DHT22;54688;52.376;16.744;2022-11-15T12:42:34;8;79.8
67893;DHT22;54688;52.376;16.744;2022-11-15T12:45:38;8;78.9
67893;DHT22;54688;52.376;16.744;2022-11-15T12:52:05;8.1;78.8
67893;DHT22;54688;52.376;16.744;2022-11-15T12:55:40;8.1;78.5
67893;DHT22;54688;52.376;16.744;2022-11-15T12:58:43;8.1;78.5
67893;DHT22;54688;52.376;16.744;2022-11-15T13:02:02;8;78.4
67893;DHT22;54688;52.376;16.744;2022-11-15T13:08:48;8.1;77.5
67893;DHT22;54688;52.376;16.744;2022-11-15T13:11:51;8.1;78.1
67893;DHT22;54688;52.376;16.744;2022-11-15T13:14:53;8;78.3
67893;DHT22;54688;52.376;16.744;2022-11-15T13:17:56;8;78.2
67893;DHT22;54688;52.376;16.744;2022-11-15T13:20:59;8;78.3
67893;DHT22;54688;52.376;16.744;2022-11-15T13:24:01;8;78.7
67893;DHT22;54688;52.376;16.744;2022-11-15T13:27:09;7.9;78.6
67893;DHT22;54688;52.376;16.744;2022-11-15T13:30:19;8;78.1
67893;DHT22;54688;52.376;16.744;2022-11-15T13:33:25;7.9;78.4
67893;DHT22;54688;52.376;16.744;2022-11-15T13:36:31;7.9;78.1
67893;DHT22;54688;52.376;16.744;2022-11-15T13:39:34;7.8;78.2
67893;DHT22;54688;52.376;16.744;2022-11-15T13:42:36;7.8;78.6
67893;DHT22;54688;52.376;16.744;2022-11-15T13:45:39;7.8;78.4
67893;DHT22;54688;52.376;16.744;2022-11-15T13:48:41;7.7;78.8
67893;DHT22;54688;52.376;16.744;2022-11-15T13:51:46;7.7;78.6
67893;DHT22;54688;52.376;16.744;2022-11-15T13:54:50;7.7;78.4
67893;DHT22;54688;52.376;16.744;2022-11-15T13:57:59;7.7;79.4
67893;DHT22;54688;52.376;16.744;2022-11-15T14:01:03;7.6;78.7
67893;DHT22;54688;52.376;16.744;2022-11-15T14:04:06;7.6;78.7
67893;DHT22;54688;52.376;16.744;2022-11-15T14:07:14;7.5;78.9
67893;DHT22;54688;52.376;16.744;2022-11-15T14:10:24;7.5;79.2
67893;DHT22;54688;52.376;16.744;2022-11-15T14:13:27;7.4;79.2
67893;DHT22;54688;52.376;16.744;2022-11-15T14:16:32;7.4;79.5
67893;DHT22;54688;52.376;16.744;2022-11-15T14:19:37;7.4;79.9
67893;DHT22;54688;52.376;16.744;2022-11-15T14:22:50;7.3;79.6
67893;DHT22;54688;52.376;16.744;2022-11-15T14:25:53;7.3;79.7
67893;DHT22;54688;52.376;16.744;2022-11-15T14:28:57;7.3;79.9
67893;DHT22;54688;52.376;16.744;2022-11-15T14:32:24;7.2;79.7
67893;DHT22;54688;52.376;16.744;2022-11-15T14:35:26;7.2;79.8
67893;DHT22;54688;52.376;16.744;2022-11-15T14:38:29;7.2;80.8
67893;DHT22;54688;52.376;16.744;2022-11-15T14:41:34;7.2;80.7
67893;DHT22;54688;52.376;16.744;2022-11-15T14:44:37;7.1;80.1
67893;DHT22;54688;52.376;16.744;2022-11-15T14:47:39;7.1;80.4
67893;DHT22;54688;52.376;16.744;2022-11-15T14:50:41;7;80.5
67893;DHT22;54688;52.376;16.744;2022-11-15T14:53:43;7;80.6
67893;DHT22;54688;52.376;16.744;2022-11-15T14:56:47;7;80.9
67893;DHT22;54688;52.376;16.744;2022-11-15T14:59:49;6.9;80.9
67893;DHT22;54688;52.376;16.744;2022-11-15T15:02:52;7;80.6
67893;DHT22;54688;52.376;16.744;2022-11-15T15:05:55;6.9;80.8
67893;DHT22;54688;52.376;16.744;2022-11-15T15:08:57;6.8;81.2
67893;DHT22;54688;52.376;16.744;2022-11-15T15:11:58;6.8;80.9
67893;DHT22;54688;52.376;16.744;2022-11-15T15:15:00;6.8;80.9
67893;DHT22;54688;52.376;16.744;2022-11-15T15:18:03;6.7;80.3
67893;DHT22;54688;52.376;16.744;2022-11-15T15:21:13;6.7;81.4
67893;DHT22;54688;52.376;16.744;2022-11-15T15:24:20;6.7;81.3
67893;DHT22;54688;52.376;16.744;2022-11-15T15:27:22;6.7;81.9
67893;DHT22;54688;52.376;16.744;2022-11-15T15:30:25;6.6;81.1
67893;DHT22;54688;52.376;16.744;2022-11-15T15:33:28;6.6;81.7
67893;DHT22;54688;52.376;16.744;2022-11-15T15:36:30;6.6;81.9
67893;DHT22;54688;52.376;16.744;2022-11-15T15:39:32;6.6;81.2
67893;DHT22;54688;52.376;16.744;2022-11-15T15:42:34;6.6;81.2
67893;DHT22;54688;52.376;16.744;2022-11-15T15:45:36;6.5;82.1
67893;DHT22;54688;52.376;16.744;2022-11-15T15:48:40;6.5;81.6
67893;DHT22;54688;52.376;16.744;2022-11-15T15:51:41;6.5;83.4
67893;DHT22;54688;52.376;16.744;2022-11-15T15:54:43;6.5;82.2
67893;DHT22;54688;52.376;16.744;2022-11-15T15:57:45;6.5;82.4
67893;DHT22;54688;52.376;16.744;2022-11-15T16:00:48;6.5;82.5
67893;DHT22;54688;52.376;16.744;2022-11-15T16:03:49;6.4;82.2
67893;DHT22;54688;52.376;16.744;2022-11-15T16:06:52;6.4;82.1
67893;DHT22;54688;52.376;16.744;2022-11-15T16:09:54;6.3;83.1
67893;DHT22;54688;52.376;16.744;2022-11-15T16:12:56;6.3;82.5
67893;DHT22;54688;52.376;16.744;2022-11-15T16:15:59;6.3;81.7
67893;DHT22;54688;52.376;16.744;2022-11-15T16:19:02;6.3;82.6
67893;DHT22;54688;52.376;16.744;2022-11-15T16:22:04;6.3;82.6
67893;DHT22;54688;52.376;16.744;2022-11-15T16:25:07;6.2;82.6
67893;DHT22;54688;52.376;16.744;2022-11-15T16:28:14;6.2;82.9
67893;DHT22;54688;52.376;16.744;2022-11-15T16:31:18;6.2;82.9
67893;DHT22;54688;52.376;16.744;2022-11-15T16:34:21;6.2;83
67893;DHT22;54688;52.376;16.744;2022-11-15T16:37:23;6.2;83.1
67893;DHT22;54688;52.376;16.744;2022-11-15T16:40:26;6.3;83.2
67893;DHT22;54688;52.376;16.744;2022-11-15T16:43:29;6.2;83
67893;DHT22;54688;52.376;16.744;2022-11-15T16:46:31;6.2;83
67893;DHT22;54688;52.376;16.744;2022-11-15T16:49:33;6.2;83.4
67893;DHT22;54688;52.376;16.744;2022-11-15T16:52:34;6.2;83
67893;DHT22;54688;52.376;16.744;2022-11-15T16:55:37;6.1;83.8
67893;DHT22;54688;52.376;16.744;2022-11-15T16:58:39;6.1;82.9
67893;DHT22;54688;52.376;16.744;2022-11-15T17:01:42;6.1;83.2
67893;DHT22;54688;52.376;16.744;2022-11-15T17:04:45;6.1;83.3
67893;DHT22;54688;52.376;16.744;2022-11-15T17:07:47;6.1;83.6
67893;DHT22;54688;52.376;16.744;2022-11-15T17:10:50;6.1;83.3
67893;DHT22;54688;52.376;16.744;2022-11-15T17:13:56;6.1;83.8
67893;DHT22;54688;52.376;16.744;2022-11-15T17:16:58;6.1;83.9
67893;DHT22;54688;52.376;16.744;2022-11-15T17:20:00;6.1;84.5
67893;DHT22;54688;52.376;16.744;2022-11-15T17:23:03;6;82.7
67893;DHT22;54688;52.376;16.744;2022-11-15T17:26:05;6;84.3
67893;DHT22;54688;52.376;16.744;2022-11-15T17:29:07;5.9;83.6
67893;DHT22;54688;52.376;16.744;2022-11-15T17:32:09;5.9;83.7
67893;DHT22;54688;52.376;16.744;2022-11-15T17:35:12;5.9;83.9
67893;DHT22;54688;52.376;16.744;2022-11-15T17:38:14;5.9;84
67893;DHT22;54688;52.376;16.744;2022-11-15T17:41:16;5.9;83.5
67893;DHT22;54688;52.376;16.744;2022-11-15T17:44:17;5.9;84
67893;DHT22;54688;52.376;16.744;2022-11-15T17:47:20;6;84.1
67893;DHT22;54688;52.376;16.744;2022-11-15T17:50:22;6;84.1
67893;DHT22;54688;52.376;16.744;2022-11-15T17:53:24;6;83.4
67893;DHT22;54688;52.376;16.744;2022-11-15T17:56:27;6;84.2
67893;DHT22;54688;52.376;16.744;2022-11-15T17:59:30;5.9;84.3
67893;DHT22;54688;52.376;16.744;2022-11-15T18:02:32;6;84.4
67893;DHT22;54688;52.376;16.744;2022-11-15T18:05:34;6;84.4
67893;DHT22;54688;52.376;16.744;2022-11-15T18:08:36;6;84.4
67893;DHT22;54688;52.376;16.744;2022-11-15T18:11:40;6;84.4
67893;DHT22;54688;52.376;16.744;2022-11-15T18:14:43;6.1;83.6
67893;DHT22;54688;52.376;16.744;2022-11-15T18:17:45;6.1;84.5
67893;DHT22;54688;52.376;16.744;2022-11-15T18:20:47;6.1;84.6
67893;DHT22;54688;52.376;16.744;2022-11-15T18:23:51;6.1;85.2
67893;DHT22;54688;52.376;16.744;2022-11-15T18:26:55;6.1;84.8
67893;DHT22;54688;52.376;16.744;2022-11-15T18:29:57;6.1;84.8
67893;DHT22;54688;52.376;16.744;2022-11-15T18:32:59;6.2;84.7
67893;DHT22;54688;52.376;16.744;2022-11-15T18:36:02;6.2;84.8
67893;DHT22;54688;52.376;16.744;2022-11-15T18:39:05;6.2;85.5
67893;DHT22;54688;52.376;16.744;2022-11-15T18:42:07;6.2;85
67893;DHT22;54688;52.376;16.744;2022-11-15T18:45:09;6.3;85.3
67893;DHT22;54688;52.376;16.744;2022-11-15T18:48:11;6.3;84.7
67893;DHT22;54688;52.376;16.744;2022-11-15T18:51:14;6.3;84.6
67893;DHT22;54688;52.376;16.744;2022-11-15T18:54:17;6.3;84.3
67893;DHT22;54688;52.376;16.744;2022-11-15T18:57:19;6.3;84.5
67893;DHT22;54688;52.376;16.744;2022-11-15T19:00:21;6.3;84.5
67893;DHT22;54688;52.376;16.744;2022-11-15T19:03:24;6.2;84.5
67893;DHT22;54688;52.376;16.744;2022-11-15T19:06:26;6.3;84.6
67893;DHT22;54688;52.376;16.744;2022-11-15T19:09:29;6.3;84.5
67893;DHT22;54688;52.376;16.744;2022-11-15T19:15:31;6.3;84.3
67893;DHT22;54688;52.376;16.744;2022-11-15T19:18:33;6.3;84.2
67893;DHT22;54688;52.376;16.744;2022-11-15T19:21:35;6.3;84.3
67893;DHT22;54688;52.376;16.744;2022-11-15T19:24:37;6.3;84.4
67893;DHT22;54688;52.376;16.744;2022-11-15T19:27:39;6.3;84.9
67893;DHT22;54688;52.376;16.744;2022-11-15T19:30:41;6.3;84.1
67893;DHT22;54688;52.376;16.744;2022-11-15T19:33:44;6.3;83.9
67893;DHT22;54688;52.376;16.744;2022-11-15T19:36:46;6.4;83
67893;DHT22;54688;52.376;16.744;2022-11-15T19:39:48;6.3;83.9
67893;DHT22;54688;52.376;16.744;2022-11-15T19:46:00;6.3;83.7
67893;DHT22;54688;52.376;16.744;2022-11-15T19:49:03;6.3;83.5
67893;DHT22;54688;52.376;16.744;2022-11-15T19:52:06;6.3;84.1
67893;DHT22;54688;52.376;16.744;2022-11-15T19:55:08;6.3;83.7
67893;DHT22;54688;52.376;16.744;2022-11-15T19:58:10;6.3;83.6
67893;DHT22;54688;52.376;16.744;2022-11-15T20:01:14;6.3;83.9
67893;DHT22;54688;52.376;16.744;2022-11-15T20:04:17;6.4;83.5
67893;DHT22;54688;52.376;16.744;2022-11-15T20:07:19;6.3;82.7
67893;DHT22;54688;52.376;16.744;2022-11-15T20:10:21;6.4;83.4
67893;DHT22;54688;52.376;16.744;2022-11-15T20:13:23;6.4;83.4
67893;DHT22;54688;52.376;16.744;2022-11-15T20:16:26;6.3;83.5
67893;DHT22;54688;52.376;16.744;2022-11-15T20:19:29;6.4;82.7
67893;DHT22;54688;52.376;16.744;2022-11-15T20:22:31;6.4;84
67893;DHT22;54688;52.376;16.744;2022-11-15T20:25:33;6.4;83.5
67893;DHT22;54688;52.376;16.744;2022-11-15T20:28:36;6.3;82.6
67893;DHT22;54688;52.376;16.744;2022-11-15T20:31:39;6.3;83.6
67893;DHT22;54688;52.376;16.744;2022-11-15T20:34:42;6.3;83.6
67893;DHT22;54688;52.376;16.744;2022-11-15T20:37:44;6.3;83.6
67893;DHT22;54688;52.376;16.744;2022-11-15T20:40:46;6.2;83.6
67893;DHT22;54688;52.376;16.744;2022-11-15T20:43:49;6.3;84.3
67893;DHT22;54688;52.376;16.744;2022-11-15T20:46:51;6.3;83.7
67893;DHT22;54688;52.376;16.744;2022-11-15T20:49:53;6.3;83.7
67893;DHT22;54688;52.376;16.744;2022-11-15T20:52:55;6.3;83.6